Time;durP1;ratioP1;P1;durP2;ratioP2;P2;SDS_P1;SDS_P2;PMS_P1;PMS_P2;Temp;Humidity;BMP_temperature;BMP_pressure;BME280_temperature;BME280_humidity;BME280_pressure;Samples;Min_cycle;Max_cycle;Signal;HPM_P1;HPM_P2
2023/01/17 00:01:17;;;;;;;2.27;2.07;;;4.40;99.90;;;4.87;79.60;95156.56;5230459;28;20203;-61
2023/01/17 00:12:27;;;;;;;2.80;2.70;;;3.50;99.90;;;4.13;92.55;95175.78;5221034;28;20284;-61
2023/01/17 00:15:01;;;;;;;2.43;2.23;;;3.50;99.90;;;4.03;93.90;95181.28;5222578;28;20214;-61
2023/01/17 00:17:34;;;;;;;2.30;2.20;;;3.20;99.90;;;3.82;94.21;95181.31;5219073;28;20201;-60
2023/01/17 00:26:03;;;;;;;2.67;2.57;;;2.90;99.90;;;3.24;98.40;95201.72;5230152;28;20217;-61
2023/01/17 01:35:17;;;;;;;4.33;3.93;;;2.10;99.90;;;2.64;100.00;95270.63;5230925;28;20297;-61
2023/01/17 01:37:50;;;;;;;3.83;3.57;;;2.10;99.90;;;2.68;100.00;95267.44;5230340;28;20231;-61
2023/01/17 01:40:23;;;;;;;3.33;3.03;;;2.10;99.90;;;2.71;100.00;95267.56;5225501;28;20211;-61
2023/01/17 01:43:04;;;;;;;5.60;5.13;;;2.10;99.90;;;2.70;100.00;95267.50;5220573;28;20712;-60
2023/01/17 01:45:37;;;;;;;5.60;5.10;;;2.20;99.90;;;2.72;100.00;95273.50;5220913;28;20235;-61
2023/01/17 01:48:31;;;;;;;4.17;3.87;;;2.20;99.90;;;2.79;100.00;95277.16;5231592;28;20204;-61
2023/01/17 01:51:08;;;;;;;3.23;3.03;;;2.20;99.90;;;2.86;100.00;95276.59;5228745;28;20207;-60
2023/01/17 01:53:47;;;;;;;3.23;3.03;;;2.20;99.90;;;2.86;100.00;95280.00;5236623;28;20644;-60
2023/01/17 01:56:22;;;;;;;3.40;3.20;;;2.20;99.90;;;2.89;100.00;95271.69;5224288;28;20571;-60
2023/01/17 01:58:58;;;;;;;3.70;3.40;;;2.20;99.90;;;2.83;100.00;95271.44;5226769;28;20197;-61
2023/01/17 02:01:32;;;;;;;3.63;3.37;;;2.20;99.90;;;2.81;100.00;95262.94;5224150;28;20280;-61
2023/01/17 02:04:08;;;;;;;3.37;3.17;;;2.20;99.90;;;2.87;100.00;95265.75;5220564;28;20248;-58
2023/01/17 02:06:47;;;;;;;3.60;3.30;;;2.20;99.90;;;2.87;100.00;95264.06;5220311;28;20216;-58
2023/01/17 02:09:20;;;;;;;2.97;2.77;;;2.20;99.90;;;2.88;100.00;95264.94;5223237;28;20747;-61
2023/01/17 02:11:53;;;;;;;3.67;3.37;;;2.30;99.90;;;2.84;100.00;95265.59;5223385;28;20204;-58
2023/01/17 02:14:28;;;;;;;3.60;3.30;;;2.20;99.90;;;2.85;100.00;95257.22;5232086;28;20264;-60
2023/01/17 02:17:15;;;;;;;3.47;3.27;;;2.20;99.90;;;2.92;100.00;95257.56;5231099;28;20202;-59
2023/01/17 02:20:39;;;;;;;3.07;2.87;;;2.20;99.90;;;2.94;100.00;95260.16;5223841;28;20297;-58
2023/01/17 02:24:23;;;;;;;3.70;3.40;;;2.20;99.90;;;2.91;100.00;95260.03;5228378;28;20755;-58
2023/01/17 02:27:16;;;;;;;4.00;3.67;;;2.20;99.90;;;2.91;100.00;95254.97;5223449;28;20415;-56
2023/01/17 02:30:20;;;;;;;3.67;3.37;;;2.20;99.90;;;2.90;100.00;95255.78;5231280;28;20205;-61
2023/01/17 02:33:07;;;;;;;3.37;3.17;;;2.20;99.90;;;2.86;100.00;95261.47;5229699;28;20251;-59
2023/01/17 02:35:49;;;;;;;3.70;3.40;;;2.20;99.90;;;2.88;100.00;95268.31;5224353;28;20197;-57
2023/01/17 02:38:36;;;;;;;3.03;2.73;;;2.20;99.90;;;2.82;100.00;95264.66;5224021;28;20543;-57
2023/01/17 02:41:17;;;;;;;4.70;3.60;;;2.20;99.90;;;2.91;100.00;95260.03;5223241;28;20289;-57
2023/01/17 02:43:52;;;;;;;3.63;3.43;;;2.10;99.90;;;2.91;100.00;95253.31;5230431;28;20311;-60
2023/01/17 02:46:26;;;;;;;3.40;3.20;;;2.10;99.90;;;2.93;100.00;95253.38;5230658;28;20239;-58
2023/01/17 02:49:00;;;;;;;3.53;3.33;;;2.10;99.90;;;3.06;100.00;95259.81;5225580;28;20573;-58
2023/01/17 02:52:04;;;;;;;3.13;3.03;;;2.20;99.90;;;3.12;100.00;95266.00;5224404;28;20238;-60
2023/01/17 02:55:03;;;;;;;3.47;3.27;;;2.10;99.90;;;3.05;100.00;95258.97;5214249;28;20257;-58
2023/01/17 02:58:05;;;;;;;3.97;3.67;;;2.20;99.90;;;2.94;100.00;95255.97;5229238;28;20221;-60
2023/01/17 03:00:53;;;;;;;3.47;3.17;;;2.10;99.90;;;2.94;100.00;95257.63;5224533;28;20590;-60
2023/01/17 03:03:33;;;;;;;3.77;3.47;;;2.10;99.90;;;2.92;100.00;95257.56;5224386;28;20688;-57
2023/01/17 03:06:12;;;;;;;4.23;3.73;;;2.10;99.90;;;2.96;100.00;95256.03;5228899;28;20239;-57
2023/01/17 03:08:47;;;;;;;3.20;3.00;;;2.10;99.90;;;3.08;100.00;95255.72;5224281;28;20210;-60
2023/01/17 03:11:20;;;;;;;3.47;3.17;;;2.10;99.90;;;2.99;100.00;95248.59;5228636;28;20715;-57
2023/01/17 03:13:56;;;;;;;4.20;3.90;;;2.10;99.90;;;3.01;100.00;95241.97;5226157;28;20328;-60
2023/01/17 03:16:32;;;;;;;3.33;3.13;;;2.10;99.90;;;3.01;99.79;95241.97;5231195;28;20201;-60
2023/01/17 03:19:08;;;;;;;3.50;3.30;;;2.20;99.90;;;2.98;99.55;95244.38;5225249;28;20614;-58
2023/01/17 03:21:41;;;;;;;3.17;2.97;;;2.20;99.90;;;2.94;100.00;95253.44;5222699;28;20193;-57
2023/01/17 03:24:15;;;;;;;4.07;3.77;;;2.10;99.90;;;2.92;100.00;95257.56;5224817;28;20221;-58
2023/01/17 03:26:48;;;;;;;3.27;3.07;;;2.10;99.90;;;2.91;100.00;95250.78;5222844;28;20229;-60
2023/01/17 03:29:22;;;;;;;3.30;3.10;;;2.20;99.90;;;2.92;100.00;95254.19;5227696;28;20614;-63
2023/01/17 03:31:55;;;;;;;3.23;2.93;;;2.10;99.90;;;2.91;100.00;95257.50;5228049;28;20900;-61
2023/01/17 03:34:30;;;;;;;3.20;3.00;;;2.10;99.90;;;2.85;100.00;95258.09;5227630;28;20223;-60
2023/01/17 03:37:03;;;;;;;3.80;3.50;;;2.10;99.90;;;2.86;100.00;95256.44;5226262;28;20272;-62
2023/01/17 03:39:36;;;;;;;3.33;3.13;;;2.10;99.90;;;2.82;100.00;95252.06;5223459;28;20635;-61
2023/01/17 03:42:09;;;;;;;3.30;3.10;;;2.10;99.90;;;2.85;100.00;95259.75;5223205;28;20557;-61
2023/01/17 03:44:42;;;;;;;3.40;3.27;;;2.10;99.90;;;2.85;100.00;95265.66;5229011;28;20674;-62
2023/01/17 03:47:15;;;;;;;3.13;2.93;;;2.10;99.90;;;2.87;100.00;95260.69;5220936;28;20721;-60
2023/01/17 03:49:49;;;;;;;2.60;2.40;;;2.10;99.90;;;2.91;99.83;95260.03;5230384;28;20292;-60
2023/01/17 03:52:22;;;;;;;2.80;2.70;;;2.10;99.90;;;2.80;100.00;95263.72;5219026;28;20222;-62
2023/01/17 03:54:55;;;;;;;3.13;2.83;;;2.10;99.90;;;2.75;100.00;95267.69;5221240;28;20235;-59
2023/01/17 03:57:28;;;;;;;2.80;2.60;;;2.10;99.90;;;2.83;100.00;95268.91;5222189;28;20226;-62
2023/01/17 04:00:01;;;;;;;2.90;2.80;;;2.20;99.90;;;2.85;100.00;95262.28;5234670;28;20640;-62
2023/01/17 04:02:35;;;;;;;3.07;2.87;;;2.20;99.90;;;2.87;100.00;95258.16;5224028;28;20232;-61
2023/01/17 04:05:10;;;;;;;3.10;2.90;;;2.20;99.90;;;2.85;100.00;95260.63;5220486;28;20544;-62
2023/01/17 04:07:43;;;;;;;2.97;2.77;;;2.20;99.90;;;2.87;100.00;95260.69;5221711;28;20228;-61
2023/01/17 04:10:16;;;;;;;2.93;2.77;;;2.20;99.90;;;2.85;100.00;95264.81;5222414;28;20199;-61
2023/01/17 04:12:49;;;;;;;3.30;3.10;;;2.20;99.90;;;2.90;100.00;95263.34;5224816;28;20316;-61
2023/01/17 04:15:22;;;;;;;3.17;2.97;;;2.20;99.90;;;2.88;100.00;95264.94;5223805;28;20208;-60
2023/01/17 04:17:55;;;;;;;2.87;2.73;;;2.20;99.90;;;2.90;100.00;95254.13;5218173;28;20247;-61
2023/01/17 04:20:33;;;;;;;2.67;2.53;;;2.20;99.90;;;2.89;100.00;95254.03;5224649;28;20233;-62
2023/01/17 04:23:07;;;;;;;3.37;3.13;;;2.20;99.90;;;2.88;100.00;95249.78;5227722;28;20228;-62
2023/01/17 04:25:40;;;;;;;3.60;3.30;;;2.20;99.90;;;2.87;100.00;95248.94;5227084;28;20737;-62
2023/01/17 04:28:13;;;;;;;3.70;3.40;;;2.20;99.90;;;2.92;100.00;95246.63;5225471;28;20449;-62
2023/01/17 04:30:46;;;;;;;3.40;3.20;;;2.20;99.90;;;2.87;100.00;95248.09;5231608;28;20205;-61
2023/01/17 04:33:20;;;;;;;3.13;2.80;;;2.20;99.90;;;2.92;100.00;95251.69;5227358;28;20227;-61
2023/01/17 04:35:54;;;;;;;3.87;3.30;;;2.20;99.90;;;3.00;100.00;95247.78;5229927;28;20566;-61
2023/01/17 04:38:27;;;;;;;3.53;3.23;;;2.30;99.90;;;2.98;100.00;95254.47;5229640;28;20312;-60
2023/01/17 04:41:00;;;;;;;3.57;3.27;;;2.30;99.90;;;2.93;100.00;95286.19;5228581;28;20213;-61
2023/01/17 04:43:33;;;;;;;3.40;3.13;;;2.30;99.90;;;3.06;100.00;95298.56;5225806;28;21096;-61
2023/01/17 04:46:08;;;;;;;3.00;2.90;;;2.30;99.90;;;2.91;100.00;95295.34;5218748;28;20592;-61
2023/01/17 04:48:42;;;;;;;2.60;2.50;;;2.00;99.90;;;2.69;100.00;95299.44;5228156;28;20277;-60
2023/01/17 04:51:16;;;;;;;2.80;2.50;;;1.90;99.90;;;2.61;100.00;95300.75;5222307;28;20275;-60
2023/01/17 04:53:49;;;;;;;3.00;2.80;;;1.80;99.90;;;2.47;100.00;95296.72;5225852;28;20231;-61
2023/01/17 04:56:22;;;;;;;2.80;2.70;;;1.70;99.90;;;2.44;100.00;95289.88;5215721;28;20202;-62
2023/01/17 04:58:57;;;;;;;2.83;2.73;;;1.60;99.90;;;2.50;100.00;95281.75;5221988;28;20201;-60
2023/01/17 05:01:30;;;;;;;3.50;3.20;;;1.60;99.90;;;2.41;100.00;95281.31;5221377;28;20255;-60
2023/01/17 05:04:03;;;;;;;3.67;3.40;;;1.60;99.90;;;2.33;100.00;95285.16;5220870;28;20224;-60
2023/01/17 05:06:37;;;;;;;2.90;2.70;;;1.50;99.90;;;2.27;100.00;95284.88;5220855;28;20208;-61
2023/01/17 05:09:10;;;;;;;3.73;3.47;;;1.50;99.90;;;2.17;100.00;95296.16;5226754;28;20235;-61
2023/01/17 05:11:43;;;;;;;3.77;3.27;;;1.50;99.90;;;2.07;100.00;95288.97;5226028;28;20209;-61
2023/01/17 05:14:16;;;;;;;3.57;3.27;;;1.40;99.90;;;2.02;100.00;95291.25;5230735;28;20693;-61
2023/01/17 05:16:52;;;;;;;3.50;3.20;;;1.40;99.90;;;1.96;100.00;95286.78;5222028;28;20201;-61
2023/01/17 05:19:26;;;;;;;3.57;3.27;;;1.30;99.90;;;1.94;100.00;95283.31;5224532;28;21704;-61
2023/01/17 05:22:02;;;;;;;3.87;3.40;;;1.30;99.90;;;1.93;100.00;95288.31;5227865;28;20236;-61
2023/01/17 05:24:36;;;;;;;3.73;3.50;;;1.20;99.90;;;1.91;100.00;95292.41;5232512;28;20306;-61
2023/01/17 05:27:09;;;;;;;6.00;5.13;;;1.20;99.90;;;1.89;100.00;95294.84;5222656;28;20223;-60
2023/01/17 05:29:42;;;;;;;4.57;4.17;;;1.20;99.90;;;1.71;100.00;95289.78;5222205;28;20327;-61
2023/01/17 05:32:15;;;;;;;4.33;4.07;;;1.10;99.90;;;1.64;100.00;95286.91;5222924;28;20299;-60
2023/01/17 05:34:49;;;;;;;4.33;4.03;;;1.00;99.90;;;1.62;100.00;95289.34;5226237;28;20204;-60
2023/01/17 05:37:24;;;;;;;4.00;3.80;;;1.00;99.90;;;1.66;100.00;95291.22;5222111;28;20655;-61
2023/01/17 05:39:57;;;;;;;3.97;3.67;;;1.00;99.90;;;1.65;100.00;95298.69;5230073;28;20215;-60
2023/01/17 05:42:30;;;;;;;3.77;3.47;;;1.00;99.90;;;1.62;100.00;95293.50;5223933;28;20204;-59
2023/01/17 05:45:03;;;;;;;4.27;3.87;;;1.00;99.90;;;1.68;100.00;95294.66;5230358;28;20203;-60
2023/01/17 05:47:36;;;;;;;4.70;4.30;;;1.10;99.90;;;1.73;100.00;95297.41;5221968;28;20223;-60
2023/01/17 05:50:11;;;;;;;5.23;4.83;;;1.10;99.90;;;1.74;100.00;95289.91;5223212;28;20204;-60
2023/01/17 05:52:52;;;;;;;5.30;4.80;;;1.10;99.90;;;1.71;100.00;95283.88;5225401;28;20234;-61
2023/01/17 05:55:26;;;;;;;4.03;3.73;;;1.10;99.90;;;1.73;100.00;95280.66;5226318;28;20296;-61
2023/01/17 05:58:00;;;;;;;4.27;3.87;;;1.10;99.90;;;1.73;100.00;95288.19;5231706;28;20294;-61
2023/01/17 06:00:33;;;;;;;4.60;4.30;;;1.10;99.90;;;1.73;100.00;95292.38;5221065;28;20585;-60
2023/01/17 06:03:06;;;;;;;5.00;4.60;;;1.10;99.90;;;1.73;100.00;95288.19;5227345;28;20281;-60
2023/01/17 06:05:40;;;;;;;6.90;6.40;;;1.10;99.90;;;1.69;100.00;95281.31;5227198;28;20625;-59
2023/01/17 06:08:15;;;;;;;7.53;6.67;;;1.00;99.90;;;1.58;100.00;95289.97;5229028;28;20224;-57
2023/01/17 06:10:48;;;;;;;8.57;7.67;;;0.90;99.90;;;1.53;100.00;95283.84;5222243;28;20199;-60
2023/01/17 06:13:21;;;;;;;6.93;6.33;;;0.90;99.90;;;1.48;100.00;95277.72;5221895;28;20277;-58
2023/01/17 06:15:56;;;;;;;5.63;5.13;;;0.80;99.90;;;1.43;100.00;95276.63;5237187;28;20311;-60
2023/01/17 06:18:31;;;;;;;3.93;3.63;;;0.80;99.90;;;1.32;100.00;95268.56;5222732;28;20589;-56
2023/01/17 06:21:04;;;;;;;3.60;3.40;;;0.70;99.90;;;1.26;100.00;95260.69;5226399;28;20305;-57
2023/01/17 06:23:38;;;;;;;3.70;3.37;;;0.60;99.90;;;1.25;100.00;95259.84;5233155;28;20318;-58
2023/01/17 06:26:11;;;;;;;4.63;4.23;;;0.50;99.90;;;1.26;100.00;95256.53;5230022;28;20643;-58
2023/01/17 06:28:44;;;;;;;5.03;4.63;;;0.60;99.90;;;1.24;100.00;95260.63;5225913;28;20308;-60
2023/01/17 06:31:17;;;;;;;4.67;4.37;;;0.50;99.90;;;1.16;100.00;95256.84;5230365;28;20203;-58
2023/01/17 06:33:50;;;;;;;5.83;4.23;;;0.40;99.90;;;1.00;100.00;95264.41;5224887;28;20223;-59
2023/01/17 06:36:24;;;;;;;6.53;5.93;;;0.30;99.90;;;0.85;100.00;95251.94;5226751;28;20199;-60
2023/01/17 06:38:58;;;;;;;9.10;8.20;;;0.30;99.90;;;0.78;100.00;95248.25;5227356;28;20654;-59
2023/01/17 06:41:31;;;;;;;7.00;6.40;;;0.20;99.90;;;0.81;100.00;95252.56;5232955;28;20688;-59
2023/01/17 06:44:06;;;;;;;8.13;6.63;;;0.20;99.90;;;0.88;100.00;95255.44;5225603;28;20232;-59
2023/01/17 06:46:39;;;;;;;6.70;6.13;;;0.30;99.90;;;0.87;100.00;95251.22;5230713;28;20199;-58
2023/01/17 06:49:12;;;;;;;5.63;5.23;;;0.30;99.90;;;0.87;100.00;95258.75;5230557;28;20314;-59
2023/01/17 06:51:45;;;;;;;5.30;4.80;;;0.30;99.90;;;0.81;100.00;95253.44;5235158;28;20208;-58
2023/01/17 06:54:20;;;;;;;5.20;4.80;;;0.20;99.90;;;0.81;100.00;95250.06;5239243;28;20222;-59
2023/01/17 06:56:53;;;;;;;4.40;4.00;;;0.20;99.90;;;0.66;100.00;95252.66;5228554;28;20200;-58
2023/01/17 06:59:26;;;;;;;4.37;4.00;;;0.10;99.90;;;0.67;100.00;95259.38;5240901;28;20195;-59
2023/01/17 07:01:59;;;;;;;4.00;3.70;;;0.10;99.90;;;0.67;100.00;95259.38;5238363;28;20673;-58
2023/01/17 07:04:34;;;;;;;4.10;3.80;;;0.10;99.90;;;0.70;100.00;95266.22;5237158;28;20291;-59
2023/01/17 07:07:07;;;;;;;6.63;4.93;;;0.10;99.90;;;0.75;100.00;95270.72;5229207;28;20586;-57
2023/01/17 07:09:42;;;;;;;8.03;6.70;;;0.10;99.90;;;0.71;100.00;95263.78;5235967;28;20223;-57
2023/01/17 07:12:15;;;;;;;5.80;5.30;;;0.10;99.90;;;0.59;100.00;95260.63;5240942;28;20204;-60
2023/01/17 07:14:48;;;;;;;6.57;5.30;;;0.00;99.90;;;0.48;100.00;95255.03;5239704;28;20210;-59
2023/01/17 07:17:21;;;;;;;5.57;5.07;;;-0.10;99.90;;;0.50;100.00;95250.97;5237389;28;20298;-62
2023/01/17 07:19:54;;;;;;;5.30;4.90;;;-0.10;99.90;;;0.44;100.00;95253.16;5226154;28;20199;-57
2023/01/17 07:22:27;;;;;;;5.40;4.90;;;-0.20;99.90;;;0.51;100.00;95245.16;5230716;28;20205;-59
2023/01/17 07:25:02;;;;;;;4.67;4.03;;;-0.10;99.90;;;0.51;100.00;95241.78;5244159;28;20197;-58
2023/01/17 07:27:35;;;;;;;4.90;4.50;;;-0.10;99.90;;;0.53;100.00;95240.22;5241852;28;20207;-58
2023/01/17 07:30:10;;;;;;;4.53;3.87;;;-0.10;99.90;;;0.53;100.00;95235.19;5238557;28;20224;-61
2023/01/17 07:32:43;;;;;;;5.47;5.07;;;-0.10;99.90;;;0.57;100.00;95232.94;5236958;28;20221;-58
2023/01/17 07:35:16;;;;;;;5.90;5.30;;;-0.20;99.90;;;0.54;100.00;95229.38;5234076;28;20203;-61
2023/01/17 07:37:50;;;;;;;4.73;4.43;;;-0.20;99.90;;;0.53;100.00;95227.66;5241294;28;20295;-58
2023/01/17 07:40:24;;;;;;;4.00;3.77;;;-0.20;99.90;;;0.52;100.00;95220.91;5240097;28;20215;-62
2023/01/17 07:43:01;;;;;;;3.90;3.57;;;-0.10;99.90;;;0.59;100.00;95221.28;5222979;28;20290;-60
2023/01/17 07:45:34;;;;;;;3.50;3.20;;;0.00;99.90;;;0.76;100.00;95223.81;5235427;28;20235;-58
2023/01/17 07:48:07;;;;;;;3.63;3.43;;;0.10;99.90;;;0.92;100.00;95220.41;5229025;28;20198;-57
2023/01/17 07:50:40;;;;;;;4.07;3.77;;;0.30;99.90;;;1.06;100.00;95212.78;5224708;28;20296;-58
2023/01/17 07:53:13;;;;;;;3.37;3.17;;;0.40;99.90;;;1.28;100.00;95223.91;5241630;28;20636;-60
2023/01/17 07:55:48;;;;;;;4.37;4.03;;;0.50;99.90;;;1.34;100.00;95220.06;5242445;28;20709;-58
2023/01/17 07:58:21;;;;;;;4.30;3.90;;;0.60;99.90;;;1.38;100.00;95212.66;5240326;28;20629;-61
2023/01/17 08:00:54;;;;;;;4.53;3.90;;;0.60;99.90;;;1.35;100.00;95209.19;5234489;28;20205;-61
2023/01/17 08:03:30;;;;;;;4.50;4.10;;;0.60;99.90;;;1.40;100.00;95208.53;5224179;28;20821;-59
2023/01/17 08:06:04;;;;;;;5.17;4.70;;;0.70;99.90;;;1.44;100.00;95207.91;5247201;28;20208;-60
2023/01/17 08:08:37;;;;;;;4.80;4.43;;;0.70;99.90;;;1.38;100.00;95203.44;5246473;28;20226;-57
2023/01/17 08:11:11;;;;;;;4.40;4.10;;;0.70;99.90;;;1.38;100.00;95202.59;5245694;28;20286;-60
2023/01/17 08:13:44;;;;;;;3.90;3.60;;;0.60;99.90;;;1.36;100.00;95199.97;5243887;28;20937;-56
2023/01/17 08:16:17;;;;;;;4.67;4.23;;;0.70;99.90;;;1.43;100.00;95201.13;5249817;28;20201;-57
2023/01/17 08:18:51;;;;;;;5.10;4.70;;;0.80;99.90;;;1.30;100.00;95205.59;5231229;28;20558;-57
2023/01/17 08:21:24;;;;;;;5.97;5.40;;;0.70;99.90;;;1.44;100.00;95210.44;5243105;28;20203;-60
2023/01/17 08:23:57;;;;;;;6.20;5.53;;;0.70;99.90;;;1.43;100.00;95208.69;5236637;28;20312;-54
2023/01/17 08:26:32;;;;;;;5.33;4.87;;;0.70;99.90;;;1.48;100.00;95217.31;5234229;28;20575;-58
2023/01/17 08:29:05;;;;;;;5.30;4.63;;;0.70;99.90;;;1.36;100.00;95215.09;5243816;28;20227;-58
2023/01/17 08:31:38;;;;;;;5.90;5.10;;;0.70;99.90;;;1.37;100.00;95210.91;5249568;28;20301;-57
2023/01/17 08:34:12;;;;;;;6.53;6.03;;;0.70;99.90;;;1.41;100.00;95216.19;5233622;28;20269;-60
2023/01/17 08:36:46;;;;;;;7.07;6.40;;;0.80;99.90;;;1.61;100.00;95222.16;5238853;28;20275;-60
2023/01/17 08:39:21;;;;;;;7.10;6.40;;;1.00;99.90;;;1.74;100.00;95221.94;5237651;28;20275;-60
2023/01/17 08:41:56;;;;;;;9.63;6.43;;;1.10;99.90;;;1.75;100.00;95226.22;5242853;28;20599;-60
2023/01/17 08:44:29;;;;;;;6.33;5.73;;;1.10;99.90;;;1.80;100.00;95228.94;5240577;28;20758;-60
2023/01/17 08:47:02;;;;;;;6.83;6.13;;;1.20;99.90;;;1.75;100.00;95218.66;5234933;28;20222;-61
2023/01/17 08:49:35;;;;;;;6.57;6.00;;;1.10;99.90;;;1.83;100.00;95223.16;5245113;28;20601;-61
2023/01/17 08:52:08;;;;;;;7.20;6.50;;;1.20;99.90;;;1.98;100.00;95214.69;5246929;28;20200;-59
2023/01/17 08:54:41;;;;;;;8.80;7.90;;;1.30;99.90;;;2.01;100.00;95213.97;5246831;28;20226;-58
2023/01/17 08:57:15;;;;;;;11.73;8.77;;;1.30;99.90;;;2.10;100.00;95213.53;5245027;28;20195;-59
2023/01/17 08:59:48;;;;;;;9.10;7.20;;;1.40;99.90;;;2.26;100.00;95213.41;5248200;28;20202;-58
2023/01/17 09:02:23;;;;;;;8.70;7.80;;;1.50;99.90;;;2.34;100.00;95218.81;5247592;28;20204;-61
2023/01/17 09:04:56;;;;;;;6.97;6.37;;;1.60;99.90;;;2.45;100.00;95212.59;5236797;28;20206;-58
2023/01/17 09:07:28;;;;;;;6.40;5.80;;;1.60;99.90;;;2.53;100.00;95211.28;5243515;28;20199;-58
2023/01/17 09:10:01;;;;;;;6.27;5.77;;;1.70;99.90;;;2.53;100.00;95210.44;5227061;28;20223;-61
2023/01/17 09:12:36;;;;;;;6.67;5.97;;;1.80;99.90;;;2.63;100.00;95207.50;5242406;28;20244;-59
2023/01/17 09:15:13;;;;;;;6.60;6.00;;;1.90;99.90;;;2.80;100.00;95206.56;5247928;28;20205;-61
2023/01/17 09:17:46;;;;;;;7.13;6.10;;;2.10;99.90;;;2.94;100.00;95209.69;5216965;28;20200;-60
2023/01/17 09:20:19;;;;;;;8.23;6.13;;;2.30;99.90;;;3.20;100.00;95207.41;5232075;28;20201;-57
2023/01/17 09:22:52;;;;;;;6.83;6.20;;;2.50;99.90;;;3.39;100.00;95199.81;5234515;28;20227;-57
2023/01/17 09:25:26;;;;;;;6.30;5.60;;;2.70;99.90;;;3.58;99.66;95197.25;5241534;28;20233;-59
2023/01/17 09:28:00;;;;;;;5.37;4.87;;;2.80;99.90;;;3.53;98.05;95188.59;5230200;28;20199;-59
2023/01/17 09:30:33;;;;;;;6.13;5.10;;;2.80;99.90;;;3.53;97.70;95190.28;5235679;28;20665;-60
2023/01/17 09:33:06;;;;;;;5.53;5.10;;;2.80;99.90;;;3.49;97.40;95186.78;5236952;28;20227;-60
2023/01/17 09:35:39;;;;;;;5.77;5.20;;;2.80;99.90;;;3.45;96.22;95179.84;5240370;28;20207;-58
2023/01/17 09:38:13;;;;;;;5.60;5.10;;;2.80;99.90;;;3.59;94.71;95178.75;5238591;28;20193;-57
2023/01/17 09:40:48;;;;;;;4.80;4.40;;;2.90;99.90;;;3.55;95.16;95176.91;5245237;28;20200;-60
2023/01/17 09:43:32;;;;;;;5.50;5.00;;;2.90;99.90;;;3.57;94.92;95171.91;5236403;28;20255;-59
2023/01/17 09:46:13;;;;;;;6.33;4.17;;;3.00;99.90;;;3.69;95.12;95169.00;5231398;28;20207;-60
2023/01/17 09:48:47;;;;;;;5.00;4.70;;;3.00;99.90;;;3.95;94.86;95157.38;5243830;28;20679;-57
2023/01/17 09:51:23;;;;;;;6.13;5.43;;;3.20;99.90;;;4.13;93.24;95168.19;5234785;28;20223;-59
2023/01/17 09:53:56;;;;;;;5.50;5.00;;;3.40;99.90;;;4.41;91.30;95154.06;5243816;28;20231;-61
2023/01/17 09:56:35;;;;;;;5.87;5.37;;;3.60;99.90;;;4.33;90.82;95152.91;5243773;28;20287;-61
2023/01/17 09:59:28;;;;;;;6.40;5.70;;;3.60;99.90;;;4.18;91.18;95156.59;5237314;28;20211;-59
2023/01/17 10:02:33;;;;;;;6.53;5.87;;;3.50;99.90;;;4.19;92.60;95157.47;5223297;28;20207;-59
2023/01/17 10:05:31;;;;;;;6.33;5.57;;;3.40;99.90;;;4.27;92.59;95145.97;5233850;28;20212;-58
2023/01/17 10:08:18;;;;;;;6.73;6.13;;;3.60;99.90;;;4.32;92.73;95136.91;5223514;28;20204;-59
2023/01/17 10:11:10;;;;;;;6.07;5.53;;;3.60;99.90;;;4.66;91.11;95140.59;5233928;28;20238;-58
2023/01/17 10:13:50;;;;;;;5.77;5.13;;;3.90;99.90;;;4.65;90.02;95136.38;5240210;28;20228;-60
2023/01/17 10:16:36;;;;;;;6.30;5.80;;;4.00;99.90;;;4.74;89.92;95129.94;5237955;28;20748;-59
2023/01/17 10:19:33;;;;;;;8.63;6.73;;;4.10;99.90;;;4.93;88.62;95123.84;5237121;28;20206;-59
2023/01/17 10:22:31;;;;;;;7.63;6.93;;;4.30;99.90;;;4.82;89.28;95127.69;5228905;28;20331;-60
2023/01/17 10:25:26;;;;;;;8.83;8.00;;;4.20;99.90;;;4.95;87.22;95118.84;5242784;28;20196;-60
2023/01/17 10:28:04;;;;;;;9.53;7.57;;;4.30;99.90;;;5.18;84.88;95122.16;5240119;28;20287;-59
2023/01/17 10:30:43;;;;;;;8.93;8.03;;;4.60;99.90;;;5.27;82.26;95119.94;5238975;28;20711;-57
2023/01/17 10:33:22;;;;;;;7.07;6.37;;;4.70;99.90;;;5.31;82.22;95116.66;5235888;28;20220;-59
2023/01/17 10:35:57;;;;;;;5.30;4.90;;;4.70;99.90;;;5.31;80.46;95119.19;5237725;28;20260;-58
2023/01/17 10:38:34;;;;;;;4.53;4.13;;;4.70;99.90;;;5.28;78.32;95113.19;5228578;28;20193;-60
2023/01/17 10:41:15;;;;;;;5.23;4.73;;;4.60;99.90;;;5.19;78.11;95104.47;5236470;28;20200;-60
2023/01/17 10:44:00;;;;;;;5.50;4.93;;;4.50;99.90;;;5.32;75.74;95115.88;5234527;28;20232;-59
2023/01/17 10:46:39;;;;;;;5.77;5.20;;;4.70;99.90;;;5.29;76.48;95104.75;5236254;28;20279;-60
2023/01/17 10:49:19;;;;;;;4.93;4.53;;;4.70;99.90;;;5.19;76.78;95107.00;5236056;28;20199;-59
2023/01/17 10:52:07;;;;;;;5.33;4.93;;;4.60;99.90;;;5.27;76.20;95102.19;5242031;28;20242;-58
2023/01/17 10:54:53;;;;;;;5.03;4.60;;;4.60;99.90;;;5.09;76.27;95092.31;5238490;28;20224;-59
2023/01/17 10:57:28;;;;;;;4.90;4.40;;;4.50;99.90;;;5.25;71.57;95086.09;5235202;28;20196;-59
2023/01/17 11:00:01;;;;;;;5.27;4.50;;;4.60;99.90;;;5.40;70.11;95080.66;5238191;28;20198;-59
2023/01/17 11:02:48;;;;;;;4.27;3.87;;;4.70;99.90;;;5.50;65.47;95079.28;5237685;28;20223;-62
2023/01/17 11:05:27;;;;;;;4.73;3.93;;;4.80;99.90;;;5.38;65.59;95075.53;5243359;28;20648;-58
2023/01/17 11:08:02;;;;;;;3.67;3.30;;;4.70;99.90;;;5.39;62.25;95076.41;5241661;28;20680;-59
2023/01/17 11:10:40;;;;;;;3.57;3.27;;;4.70;99.90;;;5.73;59.70;95065.63;5234171;28;20753;-60
2023/01/17 11:13:32;;;;;;;3.40;3.20;;;5.20;99.90;;;5.69;59.67;95065.47;5237844;28;20216;-59
2023/01/17 11:16:09;;;;;;;4.03;3.40;;;5.20;99.90;;;5.71;59.11;95054.56;5236241;28;20201;-59
2023/01/17 11:18:43;;;;;;;2.93;2.73;;;5.10;99.90;;;5.56;59.92;95066.78;5236824;28;20668;-60
2023/01/17 11:21:22;;;;;;;3.70;3.40;;;5.10;99.90;;;5.57;58.69;95055.84;5235891;28;20202;-60
2023/01/17 11:23:56;;;;;;;3.73;3.43;;;5.10;99.90;;;5.68;58.25;95063.78;5222346;28;20666;-58
2023/01/17 11:26:32;;;;;;;3.80;3.40;;;5.20;99.90;;;5.54;59.39;95071.81;5238665;28;20209;-59
2023/01/17 11:29:23;;;;;;;4.70;3.73;;;5.10;99.90;;;5.59;59.15;95059.28;5240644;28;20283;-60
2023/01/17 11:31:56;;;;;;;2.93;2.63;;;4.90;99.90;;;5.65;58.90;95049.34;5234486;28;20705;-59
2023/01/17 11:34:30;;;;;;;3.03;2.83;;;5.00;99.90;;;5.60;58.51;95045.78;5241970;28;20701;-60
2023/01/17 11:37:19;;;;;;;2.70;2.50;;;5.00;99.90;;;5.79;54.65;95053.13;5224015;28;20640;-59
2023/01/17 11:40:08;;;;;;;2.83;2.63;;;5.30;98.80;;;5.80;53.78;95044.72;5240080;28;20236;-61
2023/01/17 11:42:41;;;;;;;2.13;1.97;;;5.30;98.30;;;5.71;55.34;95028.38;5223567;28;20312;-59
2023/01/17 11:45:25;;;;;;;2.63;2.43;;;5.20;99.20;;;5.75;55.24;95018.41;5229408;28;20208;-61
2023/01/17 11:48:20;;;;;;;2.87;2.37;;;5.20;99.00;;;5.66;55.79;95025.69;5241875;28;20228;-60
2023/01/17 11:50:58;;;;;;;2.40;2.13;;;5.00;99.50;;;5.47;51.73;95023.47;5228476;28;20307;-59
2023/01/17 11:53:37;;;;;;;2.40;2.20;;;4.90;96.60;;;5.55;52.36;95027.94;5234435;28;20224;-60
2023/01/17 11:56:22;;;;;;;2.10;2.00;;;4.90;97.20;;;5.68;53.43;95024.09;5236192;28;20668;-61
2023/01/17 11:59:27;;;;;;;3.10;2.10;;;5.00;97.90;;;5.72;54.18;95015.75;5243627;28;20219;-59
2023/01/17 12:02:36;;;;;;;2.27;2.17;;;5.20;98.20;;;5.56;53.43;95003.47;5233402;28;20289;-60
2023/01/17 12:05:23;;;;;;;2.47;2.37;;;5.10;96.90;;;5.82;52.19;94997.47;5231977;28;20203;-61
2023/01/17 12:08:09;;;;;;;2.73;2.27;;;5.30;96.60;;;5.84;52.20;94995.00;5241414;28;20200;-61
2023/01/17 12:10:56;;;;;;;2.90;2.70;;;5.30;96.90;;;5.81;53.66;94985.63;5232443;28;20771;-59
2023/01/17 12:14:01;;;;;;;4.20;3.80;;;5.20;97.60;;;5.95;52.96;94983.50;5243224;28;20228;-61
2023/01/17 12:17:00;;;;;;;3.07;2.40;;;5.30;97.40;;;6.02;51.13;94976.94;5226992;28;20592;-61
2023/01/17 12:19:53;;;;;;;2.77;2.53;;;5.60;96.00;;;5.88;52.50;94984.97;5233422;28;20201;-59
2023/01/17 12:22:48;;;;;;;2.87;2.57;;;5.40;96.60;;;5.93;52.54;94989.31;5232277;28;20309;-61
2023/01/17 12:25:29;;;;;;;2.73;2.60;;;5.30;97.20;;;5.76;53.12;94986.31;5236997;28;20199;-59
2023/01/17 12:28:43;;;;;;;2.60;2.27;;;5.10;97.60;;;5.73;49.95;94982.00;5235998;28;20199;-60
2023/01/17 12:31:29;;;;;;;2.57;2.37;;;5.10;95.50;;;5.69;52.91;94982.72;5224088;28;20224;-58
2023/01/17 12:34:19;;;;;;;2.80;2.60;;;5.00;96.80;;;5.55;51.63;94982.34;5238463;28;20625;-61